sensor_id;sensor_type;location;lat;lon;timestamp;temperature;humidity
21801;DHT22;11062;51.164;16.924;2023-04-03T00:53:38;25.00;29.50
21801;DHT22;11062;51.164;16.924;2023-04-03T00:57:13;24.60;29.70
21801;DHT22;11062;51.164;16.924;2023-04-03T01:00:19;24.60;29.90
21801;DHT22;11062;51.164;16.924;2023-04-03T01:03:50;24.70;30.00
21801;DHT22;11062;51.164;16.924;2023-04-03T01:06:46;24.80;30.00
21801;DHT22;11062;51.164;16.924;2023-04-03T01:09:15;25.10;29.90
21801;DHT22;11062;51.164;16.924;2023-04-03T01:11:44;25.00;29.70
21801;DHT22;11062;51.164;16.924;2023-04-03T01:14:10;25.00;30.20
21801;DHT22;11062;51.164;16.924;2023-04-03T01:17:02;24.90;29.80
21801;DHT22;11062;51.164;16.924;2023-04-03T01:28:13;24.90;29.80
21801;DHT22;11062;51.164;16.924;2023-04-03T01:31:10;25.00;30.00
21801;DHT22;11062;51.164;16.924;2023-04-03T01:33:34;24.30;30.00
21801;DHT22;11062;51.164;16.924;2023-04-03T01:36:03;24.40;30.40
21801;DHT22;11062;51.164;16.924;2023-04-03T01:38:30;24.50;30.30
21801;DHT22;11062;51.164;16.924;2023-04-03T01:41:01;24.20;30.40
21801;DHT22;11062;51.164;16.924;2023-04-03T01:43:36;24.50;30.60
21801;DHT22;11062;51.164;16.924;2023-04-03T03:29:10;22.30;33.20
21801;DHT22;11062;51.164;16.924;2023-04-03T03:36:21;21.60;33.90
21801;DHT22;11062;51.164;16.924;2023-04-03T03:40:10;21.70;34.10
21801;DHT22;11062;51.164;16.924;2023-04-03T03:42:47;22.00;34.10
21801;DHT22;11062;51.164;16.924;2023-04-03T03:45:23;21.90;33.90
21801;DHT22;11062;51.164;16.924;2023-04-03T03:48:14;21.80;34.00
21801;DHT22;11062;51.164;16.924;2023-04-03T03:51:15;22.00;33.90
21801;DHT22;11062;51.164;16.924;2023-04-03T03:54:00;22.40;33.60
21801;DHT22;11062;51.164;16.924;2023-04-03T03:56:55;22.40;33.40
21801;DHT22;11062;51.164;16.924;2023-04-03T03:59:23;21.90;34.00
21801;DHT22;11062;51.164;16.924;2023-04-03T04:01:52;22.00;34.00
21801;DHT22;11062;51.164;16.924;2023-04-03T04:04:23;22.00;34.00
21801;DHT22;11062;51.164;16.924;2023-04-03T04:06:56;21.70;34.00
21801;DHT22;11062;51.164;16.924;2023-04-03T04:09:26;21.90;34.10
21801;DHT22;11062;51.164;16.924;2023-04-03T04:12:13;21.60;34.00
21801;DHT22;11062;51.164;16.924;2023-04-03T04:14:45;21.70;33.90
21801;DHT22;11062;51.164;16.924;2023-04-03T04:17:31;21.90;34.20
21801;DHT22;11062;51.164;16.924;2023-04-03T04:20:02;21.50;34.00
21801;DHT22;11062;51.164;16.924;2023-04-03T04:22:28;21.60;34.40
21801;DHT22;11062;51.164;16.924;2023-04-03T04:24:54;21.90;34.20
21801;DHT22;11062;51.164;16.924;2023-04-03T04:27:20;21.90;34.00
21801;DHT22;11062;51.164;16.924;2023-04-03T04:29:46;22.20;34.00
21801;DHT22;11062;51.164;16.924;2023-04-03T04:32:12;21.90;33.90
21801;DHT22;11062;51.164;16.924;2023-04-03T04:34:38;22.00;34.00
21801;DHT22;11062;51.164;16.924;2023-04-03T04:37:04;22.30;33.70
21801;DHT22;11062;51.164;16.924;2023-04-03T04:39:30;22.40;33.50
21801;DHT22;11062;51.164;16.924;2023-04-03T04:41:56;22.60;33.40
21801;DHT22;11062;51.164;16.924;2023-04-03T04:44:22;22.90;33.10
21801;DHT22;11062;51.164;16.924;2023-04-03T04:46:48;22.60;32.90
21801;DHT22;11062;51.164;16.924;2023-04-03T04:49:14;23.10;32.90
21801;DHT22;11062;51.164;16.924;2023-04-03T04:51:40;22.80;32.70
21801;DHT22;11062;51.164;16.924;2023-04-03T04:54:06;23.20;33.40
21801;DHT22;11062;51.164;16.924;2023-04-03T04:56:32;23.40;32.40
21801;DHT22;11062;51.164;16.924;2023-04-03T04:58:57;23.10;32.50
21801;DHT22;11062;51.164;16.924;2023-04-03T05:01:23;23.20;32.50
21801;DHT22;11062;51.164;16.924;2023-04-03T05:03:49;23.50;32.40
21801;DHT22;11062;51.164;16.924;2023-04-03T05:06:19;23.70;32.20
21801;DHT22;11062;51.164;16.924;2023-04-03T05:09:03;23.30;32.10
21801;DHT22;11062;51.164;16.924;2023-04-03T05:11:29;23.30;32.10
21801;DHT22;11062;51.164;16.924;2023-04-03T05:13:55;23.20;32.30
21801;DHT22;11062;51.164;16.924;2023-04-03T05:16:21;22.80;32.50
21801;DHT22;11062;51.164;16.924;2023-04-03T05:18:47;22.30;33.10
21801;DHT22;11062;51.164;16.924;2023-04-03T05:21:13;22.30;33.30
21801;DHT22;11062;51.164;16.924;2023-04-03T05:23:39;22.20;33.40
21801;DHT22;11062;51.164;16.924;2023-04-03T05:26:05;22.40;33.50
21801;DHT22;11062;51.164;16.924;2023-04-03T05:28:31;22.60;33.60
21801;DHT22;11062;51.164;16.924;2023-04-03T05:30:58;23.10;33.40
21801;DHT22;11062;51.164;16.924;2023-04-03T05:33:25;23.20;32.90
21801;DHT22;11062;51.164;16.924;2023-04-03T05:35:52;23.00;32.60
21801;DHT22;11062;51.164;16.924;2023-04-03T05:38:18;23.30;32.60
21801;DHT22;11062;51.164;16.924;2023-04-03T05:40:45;23.00;32.50
21801;DHT22;11062;51.164;16.924;2023-04-03T05:43:11;23.30;32.60
21801;DHT22;11062;51.164;16.924;2023-04-03T05:45:37;23.00;32.30
21801;DHT22;11062;51.164;16.924;2023-04-03T05:48:06;23.20;32.70
21801;DHT22;11062;51.164;16.924;2023-04-03T05:50:32;23.00;32.70
21801;DHT22;11062;51.164;16.924;2023-04-03T05:52:59;23.30;32.70
21801;DHT22;11062;51.164;16.924;2023-04-03T05:55:26;23.50;32.50
21801;DHT22;11062;51.164;16.924;2023-04-03T05:57:52;23.30;32.40
21801;DHT22;11062;51.164;16.924;2023-04-03T06:00:18;23.50;32.50
21801;DHT22;11062;51.164;16.924;2023-04-03T06:02:44;23.20;32.00
21801;DHT22;11062;51.164;16.924;2023-04-03T06:05:10;23.20;32.70
21801;DHT22;11062;51.164;16.924;2023-04-03T06:07:37;22.80;35.40
21801;DHT22;11062;51.164;16.924;2023-04-03T06:10:06;22.10;33.50
21801;DHT22;11062;51.164;16.924;2023-04-03T06:12:35;21.90;34.00
21801;DHT22;11062;51.164;16.924;2023-04-03T06:15:01;22.50;33.90
21801;DHT22;11062;51.164;16.924;2023-04-03T06:17:27;22.90;33.30
21801;DHT22;11062;51.164;16.924;2023-04-03T06:19:59;23.50;32.80
21801;DHT22;11062;51.164;16.924;2023-04-03T06:22:26;22.90;32.70
21801;DHT22;11062;51.164;16.924;2023-04-03T06:24:56;23.50;32.60
21801;DHT22;11062;51.164;16.924;2023-04-03T06:27:25;23.60;32.20
21801;DHT22;11062;51.164;16.924;2023-04-03T06:29:51;24.40;32.10
21801;DHT22;11062;51.164;16.924;2023-04-03T06:32:23;24.40;31.30
21801;DHT22;11062;51.164;16.924;2023-04-03T06:34:50;24.90;31.10
21801;DHT22;11062;51.164;16.924;2023-04-03T06:37:20;24.80;30.40
21801;DHT22;11062;51.164;16.924;2023-04-03T06:39:50;24.80;30.40
21801;DHT22;11062;51.164;16.924;2023-04-03T06:42:16;24.80;30.50
21801;DHT22;11062;51.164;16.924;2023-04-03T06:44:42;25.00;30.60
21801;DHT22;11062;51.164;16.924;2023-04-03T06:47:12;24.70;30.40
21801;DHT22;11062;51.164;16.924;2023-04-03T06:49:38;24.90;30.50
21801;DHT22;11062;51.164;16.924;2023-04-03T06:52:04;25.00;30.30
21801;DHT22;11062;51.164;16.924;2023-04-03T06:54:31;25.00;30.30
21801;DHT22;11062;51.164;16.924;2023-04-03T06:56:58;24.70;30.10
21801;DHT22;11062;51.164;16.924;2023-04-03T06:59:24;23.70;30.60
21801;DHT22;11062;51.164;16.924;2023-04-03T07:01:50;23.20;32.30
21801;DHT22;11062;51.164;16.924;2023-04-03T07:04:16;23.50;32.00
21801;DHT22;11062;51.164;16.924;2023-04-03T07:06:42;23.80;32.50
21801;DHT22;11062;51.164;16.924;2023-04-03T07:09:12;24.00;31.80
21801;DHT22;11062;51.164;16.924;2023-04-03T07:11:38;24.20;31.70
21801;DHT22;11062;51.164;16.924;2023-04-03T07:14:05;24.20;31.10
21801;DHT22;11062;51.164;16.924;2023-04-03T07:16:31;24.60;31.20
21801;DHT22;11062;51.164;16.924;2023-04-03T07:18:57;24.70;31.20
21801;DHT22;11062;51.164;16.924;2023-04-03T07:21:24;24.90;31.00
21801;DHT22;11062;51.164;16.924;2023-04-03T07:23:50;24.50;30.60
21801;DHT22;11062;51.164;16.924;2023-04-03T07:26:16;24.60;30.90
21801;DHT22;11062;51.164;16.924;2023-04-03T07:28:42;24.40;30.70
21801;DHT22;11062;51.164;16.924;2023-04-03T07:31:12;24.40;30.60
21801;DHT22;11062;51.164;16.924;2023-04-03T07:33:42;24.10;30.90
21801;DHT22;11062;51.164;16.924;2023-04-03T07:36:09;23.90;30.70
21801;DHT22;11062;51.164;16.924;2023-04-03T07:38:36;24.20;31.10
21801;DHT22;11062;51.164;16.924;2023-04-03T07:41:03;24.20;30.20
21801;DHT22;11062;51.164;16.924;2023-04-03T07:43:29;24.20;30.10
21801;DHT22;11062;51.164;16.924;2023-04-03T07:45:57;24.20;30.20
21801;DHT22;11062;51.164;16.924;2023-04-03T07:48:30;24.30;30.30
21801;DHT22;11062;51.164;16.924;2023-04-03T07:50:59;24.50;30.60
21801;DHT22;11062;51.164;16.924;2023-04-03T07:53:26;24.70;30.40
21801;DHT22;11062;51.164;16.924;2023-04-03T07:55:51;25.00;30.40
21801;DHT22;11062;51.164;16.924;2023-04-03T07:58:20;25.40;30.30
21801;DHT22;11062;51.164;16.924;2023-04-03T08:00:47;25.50;29.20
21801;DHT22;11062;51.164;16.924;2023-04-03T08:03:16;25.60;29.20
21801;DHT22;11062;51.164;16.924;2023-04-03T08:05:49;25.90;29.40
21801;DHT22;11062;51.164;16.924;2023-04-03T08:08:22;25.70;29.60
21801;DHT22;11062;51.164;16.924;2023-04-03T08:10:53;25.70;29.40
21801;DHT22;11062;51.164;16.924;2023-04-03T08:13:22;25.90;29.40
21801;DHT22;11062;51.164;16.924;2023-04-03T08:15:51;25.70;29.20
21801;DHT22;11062;51.164;16.924;2023-04-03T08:18:21;25.50;29.00
21801;DHT22;11062;51.164;16.924;2023-04-03T08:20:50;25.50;28.90
21801;DHT22;11062;51.164;16.924;2023-04-03T08:23:17;25.40;29.00
21801;DHT22;11062;51.164;16.924;2023-04-03T08:25:44;25.60;29.00
21801;DHT22;11062;51.164;16.924;2023-04-03T08:28:11;25.70;29.00
21801;DHT22;11062;51.164;16.924;2023-04-03T08:30:41;25.70;28.50
21801;DHT22;11062;51.164;16.924;2023-04-03T08:33:08;25.90;28.90
21801;DHT22;11062;51.164;16.924;2023-04-03T08:35:39;26.10;28.50
21801;DHT22;11062;51.164;16.924;2023-04-03T08:38:06;26.50;28.60
21801;DHT22;11062;51.164;16.924;2023-04-03T08:40:32;26.70;28.60
21801;DHT22;11062;51.164;16.924;2023-04-03T08:43:29;27.00;28.50
21801;DHT22;11062;51.164;16.924;2023-04-03T08:46:00;26.00;28.50
21801;DHT22;11062;51.164;16.924;2023-04-03T08:48:31;25.00;29.10
21801;DHT22;11062;51.164;16.924;2023-04-03T08:51:03;25.20;29.00
21801;DHT22;11062;51.164;16.924;2023-04-03T08:53:34;24.80;29.50
21801;DHT22;11062;51.164;16.924;2023-04-03T08:56:08;25.20;29.40
21801;DHT22;11062;51.164;16.924;2023-04-03T08:58:47;25.50;28.80
21801;DHT22;11062;51.164;16.924;2023-04-03T09:01:38;25.90;27.80
21801;DHT22;11062;51.164;16.924;2023-04-03T09:04:14;25.70;26.80
21801;DHT22;11062;51.164;16.924;2023-04-03T09:06:45;26.00;27.40
21801;DHT22;11062;51.164;16.924;2023-04-03T09:09:42;26.20;27.60
21801;DHT22;11062;51.164;16.924;2023-04-03T09:12:27;26.50;27.80
21801;DHT22;11062;51.164;16.924;2023-04-03T09:15:19;26.80;27.90
21801;DHT22;11062;51.164;16.924;2023-04-03T09:21:24;24.50;28.10
21801;DHT22;11062;51.164;16.924;2023-04-03T09:23:57;24.20;28.50
21801;DHT22;11062;51.164;16.924;2023-04-03T09:26:42;23.80;28.50
21801;DHT22;11062;51.164;16.924;2023-04-03T09:29:27;24.10;29.00
21801;DHT22;11062;51.164;16.924;2023-04-03T09:32:00;24.50;28.60
21801;DHT22;11062;51.164;16.924;2023-04-03T09:34:32;25.30;28.10
21801;DHT22;11062;51.164;16.924;2023-04-03T09:37:02;25.70;28.60
21801;DHT22;11062;51.164;16.924;2023-04-03T09:39:53;26.00;27.50
21801;DHT22;11062;51.164;16.924;2023-04-03T09:42:26;26.40;26.90
21801;DHT22;11062;51.164;16.924;2023-04-03T09:44:58;26.30;25.90
21801;DHT22;11062;51.164;16.924;2023-04-03T09:47:30;26.30;25.80
21801;DHT22;11062;51.164;16.924;2023-04-03T09:52:44;27.50;26.80
21801;DHT22;11062;51.164;16.924;2023-04-03T09:55:24;27.70;26.00
21801;DHT22;11062;51.164;16.924;2023-04-03T09:58:04;27.50;25.20
21801;DHT22;11062;51.164;16.924;2023-04-03T10:00:37;27.10;25.20
21801;DHT22;11062;51.164;16.924;2023-04-03T10:03:05;27.50;25.00
21801;DHT22;11062;51.164;16.924;2023-04-03T10:05:41;27.70;25.30
21801;DHT22;11062;51.164;16.924;2023-04-03T10:10:40;27.50;25.60
21801;DHT22;11062;51.164;16.924;2023-04-03T10:13:18;27.80;25.60
21801;DHT22;11062;51.164;16.924;2023-04-03T10:16:12;28.20;25.70
21801;DHT22;11062;51.164;16.924;2023-04-03T10:26:59;28.90;25.00
21801;DHT22;11062;51.164;16.924;2023-04-03T10:29:39;29.20;24.40
21801;DHT22;11062;51.164;16.924;2023-04-03T10:41:10;28.20;24.70
21801;DHT22;11062;51.164;16.924;2023-04-03T10:43:49;28.30;24.70
21801;DHT22;11062;51.164;16.924;2023-04-03T10:46:27;28.60;24.70
21801;DHT22;11062;51.164;16.924;2023-04-03T10:51:28;29.20;24.80
21801;DHT22;11062;51.164;16.924;2023-04-03T10:54:11;29.20;23.70
21801;DHT22;11062;51.164;16.924;2023-04-03T10:57:23;28.90;23.70
21801;DHT22;11062;51.164;16.924;2023-04-03T10:59:52;28.80;24.30
21801;DHT22;11062;51.164;16.924;2023-04-03T11:02:56;29.00;25.00
21801;DHT22;11062;51.164;16.924;2023-04-03T11:05:40;28.80;25.00
21801;DHT22;11062;51.164;16.924;2023-04-03T11:08:26;28.80;24.10
21801;DHT22;11062;51.164;16.924;2023-04-03T11:10:57;28.60;24.20
21801;DHT22;11062;51.164;16.924;2023-04-03T11:13:58;28.80;24.70
21801;DHT22;11062;51.164;16.924;2023-04-03T11:16:29;29.00;25.20
21801;DHT22;11062;51.164;16.924;2023-04-03T11:19:30;29.20;24.20
21801;DHT22;11062;51.164;16.924;2023-04-03T11:22:32;29.40;23.60
21801;DHT22;11062;51.164;16.924;2023-04-03T11:25:04;29.60;23.80
21801;DHT22;11062;51.164;16.924;2023-04-03T11:27:58;29.70;23.30
21801;DHT22;11062;51.164;16.924;2023-04-03T11:30:30;29.90;23.90
21801;DHT22;11062;51.164;16.924;2023-04-03T11:35:51;29.80;23.80
21801;DHT22;11062;51.164;16.924;2023-04-03T11:38:32;29.70;24.00
21801;DHT22;11062;51.164;16.924;2023-04-03T11:41:04;30.10;23.70
21801;DHT22;11062;51.164;16.924;2023-04-03T11:43:32;30.00;23.00
21801;DHT22;11062;51.164;16.924;2023-04-03T11:46:03;30.10;22.80
21801;DHT22;11062;51.164;16.924;2023-04-03T11:51:00;29.70;22.90
21801;DHT22;11062;51.164;16.924;2023-04-03T11:55:57;29.60;22.70
21801;DHT22;11062;51.164;16.924;2023-04-03T12:01:06;29.70;22.40
21801;DHT22;11062;51.164;16.924;2023-04-03T12:03:56;29.70;22.90
21801;DHT22;11062;51.164;16.924;2023-04-03T12:09:01;30.20;24.00
21801;DHT22;11062;51.164;16.924;2023-04-03T12:11:35;30.30;23.60
21801;DHT22;11062;51.164;16.924;2023-04-03T12:14:04;30.30;23.10
21801;DHT22;11062;51.164;16.924;2023-04-03T12:16:42;30.20;22.70
21801;DHT22;11062;51.164;16.924;2023-04-03T12:43:17;28.90;23.30
21801;DHT22;11062;51.164;16.924;2023-04-03T12:46:09;29.20;23.60
21801;DHT22;11062;51.164;16.924;2023-04-03T12:48:52;29.30;23.50
21801;DHT22;11062;51.164;16.924;2023-04-03T12:51:44;29.80;23.10
21801;DHT22;11062;51.164;16.924;2023-04-03T12:54:32;29.90;23.00
21801;DHT22;11062;51.164;16.924;2023-04-03T12:57:23;30.10;22.90
21801;DHT22;11062;51.164;16.924;2023-04-03T12:59:50;30.10;23.00
21801;DHT22;11062;51.164;16.924;2023-04-03T13:02:36;30.00;22.80
21801;DHT22;11062;51.164;16.924;2023-04-03T13:05:16;30.30;22.90
21801;DHT22;11062;51.164;16.924;2023-04-03T13:07:43;30.80;23.50
21801;DHT22;11062;51.164;16.924;2023-04-03T13:12:50;30.40;22.50
21801;DHT22;11062;51.164;16.924;2023-04-03T13:15:23;29.70;22.50
21801;DHT22;11062;51.164;16.924;2023-04-03T13:17:50;29.60;22.80
21801;DHT22;11062;51.164;16.924;2023-04-03T13:20:30;29.70;23.40
21801;DHT22;11062;51.164;16.924;2023-04-03T13:23:05;30.10;23.00
21801;DHT22;11062;51.164;16.924;2023-04-03T13:25:35;29.60;22.40
21801;DHT22;11062;51.164;16.924;2023-04-03T13:28:04;29.40;23.50
21801;DHT22;11062;51.164;16.924;2023-04-03T13:30:33;29.70;23.30
21801;DHT22;11062;51.164;16.924;2023-04-03T13:33:05;29.70;22.90
21801;DHT22;11062;51.164;16.924;2023-04-03T13:35:40;29.80;22.60
21801;DHT22;11062;51.164;16.924;2023-04-03T13:38:23;30.70;23.20
21801;DHT22;11062;51.164;16.924;2023-04-03T13:40:55;31.00;22.40
21801;DHT22;11062;51.164;16.924;2023-04-03T13:43:30;30.80;22.20
21801;DHT22;11062;51.164;16.924;2023-04-03T13:46:20;29.80;21.80
21801;DHT22;11062;51.164;16.924;2023-04-03T13:48:52;29.60;22.20
21801;DHT22;11062;51.164;16.924;2023-04-03T13:51:28;30.00;22.70
21801;DHT22;11062;51.164;16.924;2023-04-03T13:53:58;30.00;22.70
21801;DHT22;11062;51.164;16.924;2023-04-03T13:56:26;30.70;22.70
21801;DHT22;11062;51.164;16.924;2023-04-03T14:01:57;31.60;22.00
21801;DHT22;11062;51.164;16.924;2023-04-03T14:07:03;31.80;22.10
21801;DHT22;11062;51.164;16.924;2023-04-03T14:09:29;32.00;22.40
21801;DHT22;11062;51.164;16.924;2023-04-03T14:12:21;32.20;22.40
21801;DHT22;11062;51.164;16.924;2023-04-03T14:14:50;32.30;22.30
21801;DHT22;11062;51.164;16.924;2023-04-03T14:17:20;30.90;21.30
21801;DHT22;11062;51.164;16.924;2023-04-03T14:19:48;30.80;21.90
21801;DHT22;11062;51.164;16.924;2023-04-03T14:22:23;30.50;21.40
21801;DHT22;11062;51.164;16.924;2023-04-03T14:24:51;30.60;21.90
21801;DHT22;11062;51.164;16.924;2023-04-03T14:27:25;30.50;22.30
21801;DHT22;11062;51.164;16.924;2023-04-03T14:29:54;30.50;22.00
21801;DHT22;11062;51.164;16.924;2023-04-03T14:32:24;30.30;22.10
21801;DHT22;11062;51.164;16.924;2023-04-03T14:34:51;30.30;22.30
21801;DHT22;11062;51.164;16.924;2023-04-03T14:37:21;30.20;22.20
21801;DHT22;11062;51.164;16.924;2023-04-03T14:39:48;30.00;21.80
21801;DHT22;11062;51.164;16.924;2023-04-03T14:42:18;29.50;21.90
21801;DHT22;11062;51.164;16.924;2023-04-03T14:44:46;29.00;22.20
21801;DHT22;11062;51.164;16.924;2023-04-03T14:47:14;29.10;23.00
21801;DHT22;11062;51.164;16.924;2023-04-03T14:49:41;29.10;22.90
21801;DHT22;11062;51.164;16.924;2023-04-03T14:52:26;28.30;22.80
21801;DHT22;11062;51.164;16.924;2023-04-03T14:54:56;28.20;23.50
21801;DHT22;11062;51.164;16.924;2023-04-03T14:57:25;28.10;24.20
21801;DHT22;11062;51.164;16.924;2023-04-03T14:59:51;27.80;23.80
21801;DHT22;11062;51.164;16.924;2023-04-03T15:02:35;28.00;23.80
21801;DHT22;11062;51.164;16.924;2023-04-03T15:05:04;27.80;23.50
21801;DHT22;11062;51.164;16.924;2023-04-03T15:12:41;27.90;24.20
21801;DHT22;11062;51.164;16.924;2023-04-03T15:15:08;28.30;24.00
21801;DHT22;11062;51.164;16.924;2023-04-03T15:17:35;28.30;23.50
21801;DHT22;11062;51.164;16.924;2023-04-03T15:20:02;28.20;23.60
21801;DHT22;11062;51.164;16.924;2023-04-03T15:22:28;28.50;23.90
21801;DHT22;11062;51.164;16.924;2023-04-03T15:24:54;28.60;23.90
21801;DHT22;11062;51.164;16.924;2023-04-03T15:27:21;28.70;23.80
21801;DHT22;11062;51.164;16.924;2023-04-03T15:29:47;28.80;23.70
21801;DHT22;11062;51.164;16.924;2023-04-03T15:32:13;28.40;23.60
21801;DHT22;11062;51.164;16.924;2023-04-03T15:34:40;28.50;23.70
21801;DHT22;11062;51.164;16.924;2023-04-03T15:37:06;28.40;24.00
21801;DHT22;11062;51.164;16.924;2023-04-03T15:39:33;28.50;24.00
21801;DHT22;11062;51.164;16.924;2023-04-03T15:41:59;28.30;23.60
21801;DHT22;11062;51.164;16.924;2023-04-03T15:44:34;28.30;23.70
21801;DHT22;11062;51.164;16.924;2023-04-03T15:47:02;27.90;23.50
21801;DHT22;11062;51.164;16.924;2023-04-03T15:49:30;27.90;23.80
21801;DHT22;11062;51.164;16.924;2023-04-03T15:51:59;27.50;23.80
21801;DHT22;11062;51.164;16.924;2023-04-03T15:54:28;27.60;24.20
21801;DHT22;11062;51.164;16.924;2023-04-03T15:56:58;27.70;24.30
21801;DHT22;11062;51.164;16.924;2023-04-03T15:59:24;27.80;24.20
21801;DHT22;11062;51.164;16.924;2023-04-03T16:01:50;27.70;24.30
21801;DHT22;11062;51.164;16.924;2023-04-03T16:04:17;27.60;24.40
21801;DHT22;11062;51.164;16.924;2023-04-03T16:06:43;27.20;24.50
21801;DHT22;11062;51.164;16.924;2023-04-03T16:09:09;26.30;24.50
21801;DHT22;11062;51.164;16.924;2023-04-03T16:11:36;26.70;25.00
21801;DHT22;11062;51.164;16.924;2023-04-03T16:14:05;27.10;25.60
21801;DHT22;11062;51.164;16.924;2023-04-03T16:16:31;27.30;24.90
21801;DHT22;11062;51.164;16.924;2023-04-03T16:18:57;27.70;24.80
21801;DHT22;11062;51.164;16.924;2023-04-03T16:21:23;27.90;24.40
21801;DHT22;11062;51.164;16.924;2023-04-03T16:23:50;28.20;24.40
21801;DHT22;11062;51.164;16.924;2023-04-03T16:26:16;28.20;24.30
21801;DHT22;11062;51.164;16.924;2023-04-03T16:28:43;28.10;24.40
21801;DHT22;11062;51.164;16.924;2023-04-03T16:31:09;28.10;24.50
21801;DHT22;11062;51.164;16.924;2023-04-03T16:33:37;27.80;24.30
21801;DHT22;11062;51.164;16.924;2023-04-03T16:36:04;27.90;24.50
21801;DHT22;11062;51.164;16.924;2023-04-03T16:38:30;27.80;24.50
21801;DHT22;11062;51.164;16.924;2023-04-03T16:40:56;27.60;24.60
21801;DHT22;11062;51.164;16.924;2023-04-03T16:43:33;27.50;25.30
21801;DHT22;11062;51.164;16.924;2023-04-03T16:46:01;27.70;24.80
21801;DHT22;11062;51.164;16.924;2023-04-03T16:48:31;27.50;24.80
21801;DHT22;11062;51.164;16.924;2023-04-03T16:50:57;27.60;24.90
21801;DHT22;11062;51.164;16.924;2023-04-03T16:53:24;27.80;25.00
21801;DHT22;11062;51.164;16.924;2023-04-03T16:55:53;27.90;24.90
21801;DHT22;11062;51.164;16.924;2023-04-03T16:58:20;28.00;24.90
21801;DHT22;11062;51.164;16.924;2023-04-03T17:00:46;28.00;24.70
21801;DHT22;11062;51.164;16.924;2023-04-03T17:03:12;27.70;24.60
21801;DHT22;11062;51.164;16.924;2023-04-03T17:05:38;27.70;24.80
21801;DHT22;11062;51.164;16.924;2023-04-03T17:08:04;27.40;24.50
21801;DHT22;11062;51.164;16.924;2023-04-03T17:10:30;27.50;24.50
21801;DHT22;11062;51.164;16.924;2023-04-03T17:12:56;27.50;24.70
21801;DHT22;11062;51.164;16.924;2023-04-03T17:15:23;27.50;24.40
21801;DHT22;11062;51.164;16.924;2023-04-03T17:17:51;27.60;24.40
21801;DHT22;11062;51.164;16.924;2023-04-03T17:20:20;27.90;24.60
21801;DHT22;11062;51.164;16.924;2023-04-03T17:22:46;28.10;24.50
21801;DHT22;11062;51.164;16.924;2023-04-03T17:25:12;28.30;24.50
21801;DHT22;11062;51.164;16.924;2023-04-03T17:27:40;28.60;24.50
21801;DHT22;11062;51.164;16.924;2023-04-03T17:30:06;28.70;24.40
21801;DHT22;11062;51.164;16.924;2023-04-03T17:32:33;28.90;24.80
21801;DHT22;11062;51.164;16.924;2023-04-03T17:34:58;29.10;24.30
21801;DHT22;11062;51.164;16.924;2023-04-03T17:37:24;29.10;24.20
21801;DHT22;11062;51.164;16.924;2023-04-03T17:39:50;29.00;24.10
21801;DHT22;11062;51.164;16.924;2023-04-03T17:42:16;29.00;24.00
21801;DHT22;11062;51.164;16.924;2023-04-03T17:44:42;29.00;24.00
21801;DHT22;11062;51.164;16.924;2023-04-03T17:47:09;28.90;24.20
21801;DHT22;11062;51.164;16.924;2023-04-03T17:49:34;28.70;24.30
21801;DHT22;11062;51.164;16.924;2023-04-03T17:52:00;28.60;24.30
21801;DHT22;11062;51.164;16.924;2023-04-03T17:54:26;28.50;24.30
21801;DHT22;11062;51.164;16.924;2023-04-03T17:56:52;28.50;24.30
21801;DHT22;11062;51.164;16.924;2023-04-03T17:59:19;28.50;24.30
21801;DHT22;11062;51.164;16.924;2023-04-03T18:01:46;28.60;24.30
21801;DHT22;11062;51.164;16.924;2023-04-03T18:04:14;28.70;24.40
21801;DHT22;11062;51.164;16.924;2023-04-03T18:06:47;28.70;24.30
21801;DHT22;11062;51.164;16.924;2023-04-03T18:09:32;28.60;24.40
21801;DHT22;11062;51.164;16.924;2023-04-03T18:12:21;28.60;24.50
21801;DHT22;11062;51.164;16.924;2023-04-03T18:15:00;28.30;24.70
21801;DHT22;11062;51.164;16.924;2023-04-03T18:17:28;28.10;24.60
21801;DHT22;11062;51.164;16.924;2023-04-03T18:20:09;28.00;24.70
21801;DHT22;11062;51.164;16.924;2023-04-03T18:23:04;27.50;24.50
21801;DHT22;11062;51.164;16.924;2023-04-03T18:25:37;27.60;25.00
21801;DHT22;11062;51.164;16.924;2023-04-03T18:28:12;27.70;24.80
21801;DHT22;11062;51.164;16.924;2023-04-03T18:30:42;27.60;24.60
21801;DHT22;11062;51.164;16.924;2023-04-03T18:33:30;27.90;24.90
21801;DHT22;11062;51.164;16.924;2023-04-03T18:36:25;28.20;24.70
21801;DHT22;11062;51.164;16.924;2023-04-03T18:39:04;28.20;24.60
21801;DHT22;11062;51.164;16.924;2023-04-03T18:42:02;28.50;24.70
21801;DHT22;11062;51.164;16.924;2023-04-03T18:44:35;28.70;24.60
21801;DHT22;11062;51.164;16.924;2023-04-03T18:47:32;28.80;24.50
21801;DHT22;11062;51.164;16.924;2023-04-03T18:50:08;28.90;24.20
21801;DHT22;11062;51.164;16.924;2023-04-03T18:52:58;28.70;24.50
21801;DHT22;11062;51.164;16.924;2023-04-03T18:55:45;28.80;24.50
21801;DHT22;11062;51.164;16.924;2023-04-03T19:02:01;29.00;24.50
21801;DHT22;11062;51.164;16.924;2023-04-03T19:04:50;28.90;24.50
21801;DHT22;11062;51.164;16.924;2023-04-03T19:07:27;28.70;24.80
21801;DHT22;11062;51.164;16.924;2023-04-03T19:09:54;28.80;24.50
21801;DHT22;11062;51.164;16.924;2023-04-03T19:12:19;28.60;24.30
21801;DHT22;11062;51.164;16.924;2023-04-03T19:14:46;28.70;24.50
21801;DHT22;11062;51.164;16.924;2023-04-03T19:17:11;28.80;24.60
21801;DHT22;11062;51.164;16.924;2023-04-03T19:19:38;29.00;24.50
21801;DHT22;11062;51.164;16.924;2023-04-03T19:22:04;29.00;24.50
21801;DHT22;11062;51.164;16.924;2023-04-03T19:24:33;29.00;24.60
21801;DHT22;11062;51.164;16.924;2023-04-03T19:27:03;28.80;24.60
21801;DHT22;11062;51.164;16.924;2023-04-03T19:29:34;28.70;24.80
21801;DHT22;11062;51.164;16.924;2023-04-03T19:32:03;28.50;24.80
21801;DHT22;11062;51.164;16.924;2023-04-03T19:34:35;28.30;24.90
21801;DHT22;11062;51.164;16.924;2023-04-03T19:47:39;27.60;25.10
21801;DHT22;11062;51.164;16.924;2023-04-03T19:50:08;27.50;25.20
21801;DHT22;11062;51.164;16.924;2023-04-03T19:52:35;27.60;25.50
21801;DHT22;11062;51.164;16.924;2023-04-03T19:55:00;27.30;25.40
21801;DHT22;11062;51.164;16.924;2023-04-03T19:57:36;26.70;25.60
21801;DHT22;11062;51.164;16.924;2023-04-03T20:00:02;26.20;26.10
21801;DHT22;11062;51.164;16.924;2023-04-03T20:02:28;25.60;27.00
21801;DHT22;11062;51.164;16.924;2023-04-03T20:04:54;25.50;26.60
21801;DHT22;11062;51.164;16.924;2023-04-03T20:07:23;25.80;26.70
21801;DHT22;11062;51.164;16.924;2023-04-03T20:09:50;26.10;26.50